sensor_id;sensor_type;location;lat;lon;timestamp;pressure;altitude;pressure_sealevel;temperature;humidity
63708;BME280;67643;-34.198;22.084;2023-04-29T00:01:42;100555.44;;;18.74;36.85
63708;BME280;67643;-34.198;22.084;2023-04-29T00:04:11;100552.05;;;18.69;36.52
63708;BME280;67643;-34.198;22.084;2023-04-29T00:06:40;100554.02;;;18.28;36.84
63708;BME280;67643;-34.198;22.084;2023-04-29T00:09:09;100557.02;;;18.68;36.23
63708;BME280;67643;-34.198;22.084;2023-04-29T00:11:37;100560.02;;;18.40;36.37
63708;BME280;67643;-34.198;22.084;2023-04-29T00:14:06;100564.02;;;18.58;36.67
63708;BME280;67643;-34.198;22.084;2023-04-29T00:16:34;100562.39;;;18.40;36.94
63708;BME280;67643;-34.198;22.084;2023-04-29T00:19:03;100561.31;;;18.15;37.16
63708;BME280;67643;-34.198;22.084;2023-04-29T00:21:32;100564.34;;;18.69;36.19
63708;BME280;67643;-34.198;22.084;2023-04-29T00:24:00;100565.11;;;18.64;37.03
63708;BME280;67643;-34.198;22.084;2023-04-29T00:26:29;100565.26;;;18.62;36.54
63708;BME280;67643;-34.198;22.084;2023-04-29T00:28:58;100562.60;;;18.50;36.15
63708;BME280;67643;-34.198;22.084;2023-04-29T00:31:26;100563.09;;;18.79;36.50
63708;BME280;67643;-34.198;22.084;2023-04-29T00:33:55;100567.48;;;18.83;36.56
63708;BME280;67643;-34.198;22.084;2023-04-29T00:36:23;100565.15;;;18.77;36.44
63708;BME280;67643;-34.198;22.084;2023-04-29T00:38:52;100564.93;;;18.97;36.36
63708;BME280;67643;-34.198;22.084;2023-04-29T00:41:21;100563.48;;;18.75;36.45
63708;BME280;67643;-34.198;22.084;2023-04-29T00:43:49;100562.47;;;18.12;36.71
63708;BME280;67643;-34.198;22.084;2023-04-29T00:46:18;100560.11;;;17.97;37.19
63708;BME280;67643;-34.198;22.084;2023-04-29T00:48:46;100558.98;;;18.46;36.52
63708;BME280;67643;-34.198;22.084;2023-04-29T00:51:16;100552.23;;;18.66;36.21
63708;BME280;67643;-34.198;22.084;2023-04-29T00:53:45;100547.58;;;18.40;35.68
63708;BME280;67643;-34.198;22.084;2023-04-29T00:56:13;100542.87;;;19.09;36.12
63708;BME280;67643;-34.198;22.084;2023-04-29T00:58:44;100550.57;;;18.72;36.26
63708;BME280;67643;-34.198;22.084;2023-04-29T01:01:12;100549.37;;;18.96;36.18
63708;BME280;67643;-34.198;22.084;2023-04-29T01:03:41;100549.92;;;18.54;36.53
63708;BME280;67643;-34.198;22.084;2023-04-29T01:06:22;100549.16;;;18.36;36.24
63708;BME280;67643;-34.198;22.084;2023-04-29T01:09:03;100550.30;;;18.35;36.33
63708;BME280;67643;-34.198;22.084;2023-04-29T01:11:41;100552.49;;;18.76;36.46
63708;BME280;67643;-34.198;22.084;2023-04-29T01:14:14;100552.56;;;18.44;36.59
63708;BME280;67643;-34.198;22.084;2023-04-29T01:16:47;100550.81;;;18.79;35.56
63708;BME280;67643;-34.198;22.084;2023-04-29T01:19:25;100550.30;;;18.90;36.12
63708;BME280;67643;-34.198;22.084;2023-04-29T01:22:01;100547.06;;;18.50;36.52
63708;BME280;67643;-34.198;22.084;2023-04-29T01:24:29;100549.39;;;18.57;35.94
63708;BME280;67643;-34.198;22.084;2023-04-29T01:27:01;100550.14;;;18.62;36.45
63708;BME280;67643;-34.198;22.084;2023-04-29T01:29:38;100548.00;;;18.32;35.98
63708;BME280;67643;-34.198;22.084;2023-04-29T01:32:14;100548.78;;;18.23;35.88
63708;BME280;67643;-34.198;22.084;2023-04-29T01:34:51;100551.13;;;18.25;36.31
63708;BME280;67643;-34.198;22.084;2023-04-29T01:37:31;100545.74;;;18.45;35.96
63708;BME280;67643;-34.198;22.084;2023-04-29T01:40:07;100549.69;;;18.13;35.78
63708;BME280;67643;-34.198;22.084;2023-04-29T01:42:41;100550.63;;;18.70;35.47
63708;BME280;67643;-34.198;22.084;2023-04-29T01:45:15;100551.50;;;18.22;36.79
63708;BME280;67643;-34.198;22.084;2023-04-29T01:47:44;100550.55;;;18.58;36.06
63708;BME280;67643;-34.198;22.084;2023-04-29T01:50:13;100553.03;;;18.43;36.03
63708;BME280;67643;-34.198;22.084;2023-04-29T01:52:42;100552.84;;;18.73;36.04
63708;BME280;67643;-34.198;22.084;2023-04-29T01:55:10;100553.64;;;19.08;35.39
63708;BME280;67643;-34.198;22.084;2023-04-29T01:57:39;100554.66;;;18.81;35.89
63708;BME280;67643;-34.198;22.084;2023-04-29T02:00:08;100554.53;;;18.97;35.85
63708;BME280;67643;-34.198;22.084;2023-04-29T02:02:37;100557.41;;;18.90;36.11
63708;BME280;67643;-34.198;22.084;2023-04-29T02:05:06;100552.93;;;19.13;36.14
63708;BME280;67643;-34.198;22.084;2023-04-29T02:07:34;100554.52;;;19.10;36.00
63708;BME280;67643;-34.198;22.084;2023-04-29T02:10:03;100555.14;;;18.96;35.66
63708;BME280;67643;-34.198;22.084;2023-04-29T02:12:31;100556.78;;;18.69;36.15
63708;BME280;67643;-34.198;22.084;2023-04-29T02:15:00;100562.28;;;19.16;36.28
63708;BME280;67643;-34.198;22.084;2023-04-29T02:17:28;100562.64;;;18.99;35.35
63708;BME280;67643;-34.198;22.084;2023-04-29T02:19:57;100566.67;;;19.40;35.58
63708;BME280;67643;-34.198;22.084;2023-04-29T02:22:26;100572.38;;;19.04;36.00
63708;BME280;67643;-34.198;22.084;2023-04-29T02:24:54;100571.54;;;19.07;35.33
63708;BME280;67643;-34.198;22.084;2023-04-29T02:27:23;100576.59;;;18.85;35.55
63708;BME280;67643;-34.198;22.084;2023-04-29T02:29:51;100576.66;;;19.18;35.77
63708;BME280;67643;-34.198;22.084;2023-04-29T02:32:19;100583.22;;;18.93;35.29
63708;BME280;67643;-34.198;22.084;2023-04-29T02:34:48;100581.87;;;19.40;35.54
63708;BME280;67643;-34.198;22.084;2023-04-29T02:37:16;100587.14;;;19.09;35.89
63708;BME280;67643;-34.198;22.084;2023-04-29T02:39:45;100585.89;;;19.23;35.43
63708;BME280;67643;-34.198;22.084;2023-04-29T02:42:14;100586.30;;;19.07;35.32
63708;BME280;67643;-34.198;22.084;2023-04-29T02:44:42;100592.56;;;19.13;35.32
63708;BME280;67643;-34.198;22.084;2023-04-29T02:47:10;100594.98;;;19.03;35.07
63708;BME280;67643;-34.198;22.084;2023-04-29T02:49:39;100595.16;;;19.04;35.49
63708;BME280;67643;-34.198;22.084;2023-04-29T02:52:08;100600.17;;;18.89;35.56
63708;BME280;67643;-34.198;22.084;2023-04-29T02:54:36;100604.61;;;19.24;34.82
63708;BME280;67643;-34.198;22.084;2023-04-29T02:57:05;100608.84;;;18.98;35.17
63708;BME280;67643;-34.198;22.084;2023-04-29T02:59:33;100608.32;;;19.06;35.61
63708;BME280;67643;-34.198;22.084;2023-04-29T03:02:02;100609.48;;;18.98;35.42
63708;BME280;67643;-34.198;22.084;2023-04-29T03:04:30;100607.35;;;19.32;35.38
63708;BME280;67643;-34.198;22.084;2023-04-29T03:06:58;100610.89;;;18.94;36.06
63708;BME280;67643;-34.198;22.084;2023-04-29T03:09:27;100614.96;;;18.74;35.96
63708;BME280;67643;-34.198;22.084;2023-04-29T03:11:55;100615.23;;;18.97;36.01
63708;BME280;67643;-34.198;22.084;2023-04-29T03:14:23;100612.68;;;19.41;36.13
63708;BME280;67643;-34.198;22.084;2023-04-29T03:16:52;100612.76;;;19.30;35.57
63708;BME280;67643;-34.198;22.084;2023-04-29T03:19:20;100615.18;;;18.93;36.03
63708;BME280;67643;-34.198;22.084;2023-04-29T03:21:48;100614.05;;;18.96;35.93
63708;BME280;67643;-34.198;22.084;2023-04-29T03:24:17;100604.77;;;19.32;34.81
63708;BME280;67643;-34.198;22.084;2023-04-29T03:26:46;100608.36;;;18.81;36.30
63708;BME280;67643;-34.198;22.084;2023-04-29T03:29:14;100613.64;;;18.84;35.66
63708;BME280;67643;-34.198;22.084;2023-04-29T03:31:43;100613.26;;;18.75;36.38
63708;BME280;67643;-34.198;22.084;2023-04-29T03:34:11;100612.89;;;19.14;35.27
63708;BME280;67643;-34.198;22.084;2023-04-29T03:36:39;100618.60;;;18.95;35.90
63708;BME280;67643;-34.198;22.084;2023-04-29T03:39:08;100624.16;;;18.77;36.19
63708;BME280;67643;-34.198;22.084;2023-04-29T03:41:37;100625.15;;;19.00;36.46
63708;BME280;67643;-34.198;22.084;2023-04-29T03:44:05;100623.08;;;18.91;36.38
63708;BME280;67643;-34.198;22.084;2023-04-29T03:46:34;100627.75;;;19.22;36.24
63708;BME280;67643;-34.198;22.084;2023-04-29T03:49:03;100627.65;;;19.21;36.08
63708;BME280;67643;-34.198;22.084;2023-04-29T03:51:32;100629.26;;;19.27;36.36
63708;BME280;67643;-34.198;22.084;2023-04-29T03:54:00;100631.55;;;18.98;35.70
63708;BME280;67643;-34.198;22.084;2023-04-29T03:56:29;100634.84;;;19.12;35.84
63708;BME280;67643;-34.198;22.084;2023-04-29T03:58:57;100632.31;;;19.13;36.06
63708;BME280;67643;-34.198;22.084;2023-04-29T04:37:45;100658.21;;;16.07;47.44
63708;BME280;67643;-34.198;22.084;2023-04-29T04:40:14;100653.51;;;17.13;42.85
63708;BME280;67643;-34.198;22.084;2023-04-29T04:42:42;100651.68;;;18.04;41.43
63708;BME280;67643;-34.198;22.084;2023-04-29T04:45:11;100646.00;;;18.21;39.84
63708;BME280;67643;-34.198;22.084;2023-04-29T04:47:40;100647.64;;;18.55;39.92
63708;BME280;67643;-34.198;22.084;2023-04-29T04:50:09;100645.70;;;18.51;40.06
63708;BME280;67643;-34.198;22.084;2023-04-29T04:52:37;100649.08;;;19.15;39.38
63708;BME280;67643;-34.198;22.084;2023-04-29T04:55:06;100647.29;;;19.48;39.29
63708;BME280;67643;-34.198;22.084;2023-04-29T04:57:35;100649.83;;;19.63;39.03
63708;BME280;67643;-34.198;22.084;2023-04-29T05:00:04;100653.14;;;19.93;38.66
63708;BME280;67643;-34.198;22.084;2023-04-29T05:02:32;100658.38;;;20.00;39.14
63708;BME280;67643;-34.198;22.084;2023-04-29T05:05:01;100660.51;;;20.33;38.77
63708;BME280;67643;-34.198;22.084;2023-04-29T05:07:29;100664.49;;;20.12;39.14
63708;BME280;67643;-34.198;22.084;2023-04-29T05:09:58;100666.57;;;19.70;38.70
63708;BME280;67643;-34.198;22.084;2023-04-29T05:12:27;100671.67;;;19.97;38.85
63708;BME280;67643;-34.198;22.084;2023-04-29T05:14:56;100670.52;;;19.90;38.67
63708;BME280;67643;-34.198;22.084;2023-04-29T05:17:25;100674.03;;;20.29;38.99
63708;BME280;67643;-34.198;22.084;2023-04-29T05:19:54;100673.15;;;20.15;37.99
63708;BME280;67643;-34.198;22.084;2023-04-29T05:22:22;100674.75;;;19.88;37.19
63708;BME280;67643;-34.198;22.084;2023-04-29T05:24:51;100678.51;;;19.60;37.42
63708;BME280;67643;-34.198;22.084;2023-04-29T05:27:19;100677.70;;;19.55;38.19
63708;BME280;67643;-34.198;22.084;2023-04-29T05:29:48;100677.76;;;19.67;38.25
63708;BME280;67643;-34.198;22.084;2023-04-29T05:32:16;100676.03;;;19.73;37.89
63708;BME280;67643;-34.198;22.084;2023-04-29T05:34:45;100684.13;;;19.69;38.71
63708;BME280;67643;-34.198;22.084;2023-04-29T05:37:13;100680.61;;;20.21;38.46
63708;BME280;67643;-34.198;22.084;2023-04-29T05:39:42;100674.26;;;20.32;38.04
63708;BME280;67643;-34.198;22.084;2023-04-29T05:42:11;100678.87;;;19.97;37.64
63708;BME280;67643;-34.198;22.084;2023-04-29T05:44:40;100679.98;;;19.81;36.74
63708;BME280;67643;-34.198;22.084;2023-04-29T05:47:08;100689.66;;;19.76;37.60
63708;BME280;67643;-34.198;22.084;2023-04-29T05:49:37;100689.65;;;20.09;37.83
63708;BME280;67643;-34.198;22.084;2023-04-29T05:52:06;100694.83;;;19.72;37.55
63708;BME280;67643;-34.198;22.084;2023-04-29T05:54:35;100699.35;;;20.02;37.51
63708;BME280;67643;-34.198;22.084;2023-04-29T05:57:03;100702.23;;;19.86;37.39
63708;BME280;67643;-34.198;22.084;2023-04-29T05:59:32;100702.66;;;19.56;37.71
63708;BME280;67643;-34.198;22.084;2023-04-29T06:02:01;100705.80;;;19.86;36.79
63708;BME280;67643;-34.198;22.084;2023-04-29T06:04:29;100707.58;;;19.46;37.47
63708;BME280;67643;-34.198;22.084;2023-04-29T06:06:58;100710.56;;;19.71;36.57
63708;BME280;67643;-34.198;22.084;2023-04-29T06:09:26;100713.52;;;19.12;36.99
63708;BME280;67643;-34.198;22.084;2023-04-29T06:11:55;100718.67;;;19.50;37.41
63708;BME280;67643;-34.198;22.084;2023-04-29T06:14:23;100723.22;;;19.71;37.46
63708;BME280;67643;-34.198;22.084;2023-04-29T06:16:52;100723.64;;;19.31;37.30
63708;BME280;67643;-34.198;22.084;2023-04-29T06:19:20;100729.04;;;19.50;37.35
63708;BME280;67643;-34.198;22.084;2023-04-29T06:21:49;100735.18;;;19.56;37.08
63708;BME280;67643;-34.198;22.084;2023-04-29T06:24:17;100742.20;;;19.73;37.22
63708;BME280;67643;-34.198;22.084;2023-04-29T06:26:46;100752.22;;;19.78;37.21
63708;BME280;67643;-34.198;22.084;2023-04-29T06:29:15;100761.12;;;20.08;37.23
63708;BME280;67643;-34.198;22.084;2023-04-29T06:31:44;100761.90;;;20.03;36.98
63708;BME280;67643;-34.198;22.084;2023-04-29T06:34:11;100763.53;;;20.16;36.76
63708;BME280;67643;-34.198;22.084;2023-04-29T06:36:40;100764.91;;;20.12;36.75
63708;BME280;67643;-34.198;22.084;2023-04-29T06:39:09;100768.54;;;20.40;36.35
63708;BME280;67643;-34.198;22.084;2023-04-29T06:41:38;100777.16;;;20.35;36.35
63708;BME280;67643;-34.198;22.084;2023-04-29T06:44:06;100781.35;;;20.66;36.25
63708;BME280;67643;-34.198;22.084;2023-04-29T06:46:35;100782.87;;;20.39;36.26
63708;BME280;67643;-34.198;22.084;2023-04-29T06:49:04;100779.37;;;20.04;36.42
63708;BME280;67643;-34.198;22.084;2023-04-29T06:51:32;100781.92;;;20.51;36.13
63708;BME280;67643;-34.198;22.084;2023-04-29T06:54:01;100781.48;;;20.86;35.99
63708;BME280;67643;-34.198;22.084;2023-04-29T06:56:29;100784.28;;;20.66;35.99
63708;BME280;67643;-34.198;22.084;2023-04-29T06:58:58;100785.04;;;20.59;36.11
63708;BME280;67643;-34.198;22.084;2023-04-29T07:01:26;100786.02;;;20.59;36.16
63708;BME280;67643;-34.198;22.084;2023-04-29T07:03:54;100787.32;;;20.68;36.09
63708;BME280;67643;-34.198;22.084;2023-04-29T07:06:23;100793.58;;;20.57;36.34
63708;BME280;67643;-34.198;22.084;2023-04-29T07:08:51;100802.88;;;20.34;36.69
63708;BME280;67643;-34.198;22.084;2023-04-29T07:11:20;100803.44;;;20.38;36.73
63708;BME280;67643;-34.198;22.084;2023-04-29T07:13:49;100804.62;;;20.10;36.88
63708;BME280;67643;-34.198;22.084;2023-04-29T07:16:17;100806.34;;;20.46;37.27
63708;BME280;67643;-34.198;22.084;2023-04-29T07:18:45;100814.92;;;20.22;37.38
63708;BME280;67643;-34.198;22.084;2023-04-29T07:21:14;100817.72;;;20.08;37.58
63708;BME280;67643;-34.198;22.084;2023-04-29T07:23:42;100826.56;;;20.83;37.54
63708;BME280;67643;-34.198;22.084;2023-04-29T07:26:11;100827.16;;;20.65;37.69
63708;BME280;67643;-34.198;22.084;2023-04-29T07:28:40;100834.02;;;20.40;37.88
63708;BME280;67643;-34.198;22.084;2023-04-29T07:31:09;100831.67;;;19.97;38.90
63708;BME280;67643;-34.198;22.084;2023-04-29T07:33:37;100836.83;;;20.66;38.36
63708;BME280;67643;-34.198;22.084;2023-04-29T07:36:06;100841.97;;;20.12;38.51
63708;BME280;67643;-34.198;22.084;2023-04-29T07:38:34;100843.83;;;20.30;38.66
63708;BME280;67643;-34.198;22.084;2023-04-29T07:41:03;100841.47;;;19.62;39.75
63708;BME280;67643;-34.198;22.084;2023-04-29T07:43:32;100836.27;;;19.61;39.85
63708;BME280;67643;-34.198;22.084;2023-04-29T07:46:00;100835.14;;;19.92;39.56
63708;BME280;67643;-34.198;22.084;2023-04-29T07:48:28;100835.75;;;20.44;38.66
63708;BME280;67643;-34.198;22.084;2023-04-29T07:50:56;100844.45;;;20.91;37.85
63708;BME280;67643;-34.198;22.084;2023-04-29T07:53:25;100840.54;;;19.76;39.37
63708;BME280;67643;-34.198;22.084;2023-04-29T07:55:53;100844.04;;;20.15;38.58
63708;BME280;67643;-34.198;22.084;2023-04-29T07:58:22;100845.82;;;20.50;38.38
63708;BME280;67643;-34.198;22.084;2023-04-29T08:00:50;100846.66;;;20.59;38.31
63708;BME280;67643;-34.198;22.084;2023-04-29T08:03:18;100849.56;;;20.85;37.84
63708;BME280;67643;-34.198;22.084;2023-04-29T08:05:47;100850.22;;;20.20;38.42
63708;BME280;67643;-34.198;22.084;2023-04-29T08:08:15;100846.69;;;20.38;38.15
63708;BME280;67643;-34.198;22.084;2023-04-29T08:10:44;100842.70;;;20.45;37.93
63708;BME280;67643;-34.198;22.084;2023-04-29T08:13:12;100842.23;;;19.92;38.82
63708;BME280;67643;-34.198;22.084;2023-04-29T08:15:41;100840.72;;;19.75;38.49
63708;BME280;67643;-34.198;22.084;2023-04-29T08:18:10;100844.47;;;19.88;38.69
63708;BME280;67643;-34.198;22.084;2023-04-29T08:20:39;100844.09;;;20.14;38.65
63708;BME280;67643;-34.198;22.084;2023-04-29T08:23:07;100837.54;;;20.68;37.89
63708;BME280;67643;-34.198;22.084;2023-04-29T08:25:36;100836.46;;;20.57;37.61
63708;BME280;67643;-34.198;22.084;2023-04-29T08:28:04;100835.17;;;20.53;37.67
63708;BME280;67643;-34.198;22.084;2023-04-29T08:30:33;100836.95;;;20.27;37.91
63708;BME280;67643;-34.198;22.084;2023-04-29T08:33:04;100836.48;;;20.98;37.38
63708;BME280;67643;-34.198;22.084;2023-04-29T08:35:32;100840.70;;;20.36;37.97
63708;BME280;67643;-34.198;22.084;2023-04-29T08:38:00;100837.25;;;20.08;38.15
63708;BME280;67643;-34.198;22.084;2023-04-29T08:40:29;100837.45;;;20.17;37.59
63708;BME280;67643;-34.198;22.084;2023-04-29T08:42:58;100841.61;;;20.56;37.40
63708;BME280;67643;-34.198;22.084;2023-04-29T08:45:28;100840.75;;;20.43;37.42
63708;BME280;67643;-34.198;22.084;2023-04-29T08:47:57;100835.75;;;20.00;38.00
63708;BME280;67643;-34.198;22.084;2023-04-29T08:50:28;100834.40;;;20.21;37.52
63708;BME280;67643;-34.198;22.084;2023-04-29T08:52:56;100830.70;;;20.99;36.85
63708;BME280;67643;-34.198;22.084;2023-04-29T08:55:25;100825.66;;;19.86;37.68
63708;BME280;67643;-34.198;22.084;2023-04-29T08:57:55;100830.66;;;20.48;37.26
63708;BME280;67643;-34.198;22.084;2023-04-29T09:00:24;100827.62;;;20.39;36.88
63708;BME280;67643;-34.198;22.084;2023-04-29T09:02:54;100832.65;;;20.65;36.91
63708;BME280;67643;-34.198;22.084;2023-04-29T09:05:25;100828.25;;;20.98;36.53
63708;BME280;67643;-34.198;22.084;2023-04-29T09:07:56;100827.93;;;21.05;36.29
63708;BME280;67643;-34.198;22.084;2023-04-29T09:10:25;100830.33;;;20.25;37.15
63708;BME280;67643;-34.198;22.084;2023-04-29T09:12:56;100831.65;;;20.50;37.12
63708;BME280;67643;-34.198;22.084;2023-04-29T09:15:24;100831.08;;;21.35;35.83
63708;BME280;67643;-34.198;22.084;2023-04-29T09:17:53;100834.45;;;20.91;36.55
63708;BME280;67643;-34.198;22.084;2023-04-29T09:20:26;100828.78;;;20.50;36.27
63708;BME280;67643;-34.198;22.084;2023-04-29T09:22:58;100833.56;;;20.90;36.44
63708;BME280;67643;-34.198;22.084;2023-04-29T09:25:27;100831.44;;;20.66;36.44
63708;BME280;67643;-34.198;22.084;2023-04-29T09:27:56;100833.46;;;20.65;36.75
63708;BME280;67643;-34.198;22.084;2023-04-29T09:30:25;100833.18;;;20.59;36.50
63708;BME280;67643;-34.198;22.084;2023-04-29T09:33:05;100824.39;;;21.23;35.71
63708;BME280;67643;-34.198;22.084;2023-04-29T09:35:34;100825.01;;;21.07;35.93
63708;BME280;67643;-34.198;22.084;2023-04-29T09:38:13;100837.83;;;20.81;36.09
63708;BME280;67643;-34.198;22.084;2023-04-29T09:40:42;100838.15;;;20.82;35.96
63708;BME280;67643;-34.198;22.084;2023-04-29T09:43:13;100840.51;;;21.46;35.25
63708;BME280;67643;-34.198;22.084;2023-04-29T09:45:44;100840.48;;;21.46;35.41
63708;BME280;67643;-34.198;22.084;2023-04-29T09:48:13;100835.16;;;21.43;35.20
63708;BME280;67643;-34.198;22.084;2023-04-29T09:50:43;100832.40;;;21.09;35.49
63708;BME280;67643;-34.198;22.084;2023-04-29T09:53:11;100829.93;;;21.24;35.82
63708;BME280;67643;-34.198;22.084;2023-04-29T09:56:02;100830.61;;;21.49;35.57
63708;BME280;67643;-34.198;22.084;2023-04-29T09:58:32;100829.89;;;21.45;35.47
63708;BME280;67643;-34.198;22.084;2023-04-29T10:01:02;100827.67;;;21.52;35.24
63708;BME280;67643;-34.198;22.084;2023-04-29T10:03:33;100830.65;;;21.34;35.36
63708;BME280;67643;-34.198;22.084;2023-04-29T10:06:04;100826.20;;;21.61;35.07
63708;BME280;67643;-34.198;22.084;2023-04-29T10:08:33;100823.80;;;21.61;35.35
63708;BME280;67643;-34.198;22.084;2023-04-29T10:11:03;100823.77;;;21.77;35.11
63708;BME280;67643;-34.198;22.084;2023-04-29T10:13:34;100832.29;;;21.35;35.42
63708;BME280;67643;-34.198;22.084;2023-04-29T10:16:10;100830.87;;;21.20;35.62
63708;BME280;67643;-34.198;22.084;2023-04-29T10:18:43;100829.86;;;21.50;35.33
63708;BME280;67643;-34.198;22.084;2023-04-29T10:21:16;100826.63;;;21.55;35.21
63708;BME280;67643;-34.198;22.084;2023-04-29T10:23:46;100832.59;;;21.17;35.16
63708;BME280;67643;-34.198;22.084;2023-04-29T10:26:16;100827.16;;;21.91;34.98
63708;BME280;67643;-34.198;22.084;2023-04-29T10:28:47;100823.87;;;22.00;34.91
63708;BME280;67643;-34.198;22.084;2023-04-29T10:31:19;100825.88;;;21.76;35.08
63708;BME280;67643;-34.198;22.084;2023-04-29T10:33:49;100827.96;;;21.76;35.25
63708;BME280;67643;-34.198;22.084;2023-04-29T10:36:19;100822.60;;;21.99;35.17
63708;BME280;67643;-34.198;22.084;2023-04-29T10:38:49;100816.20;;;21.83;34.99
63708;BME280;67643;-34.198;22.084;2023-04-29T10:41:21;100816.51;;;21.92;35.08
63708;BME280;67643;-34.198;22.084;2023-04-29T10:43:49;100814.88;;;21.94;35.14
63708;BME280;67643;-34.198;22.084;2023-04-29T10:46:20;100810.32;;;21.61;35.22
63708;BME280;67643;-34.198;22.084;2023-04-29T10:48:50;100804.72;;;22.16;35.08
63708;BME280;67643;-34.198;22.084;2023-04-29T10:51:30;100804.20;;;22.04;35.31
63708;BME280;67643;-34.198;22.084;2023-04-29T10:54:02;100806.38;;;22.03;35.06
63708;BME280;67643;-34.198;22.084;2023-04-29T10:56:40;100803.53;;;22.00;35.15
63708;BME280;67643;-34.198;22.084;2023-04-29T10:59:11;100802.06;;;21.94;35.23
63708;BME280;67643;-34.198;22.084;2023-04-29T11:01:44;100795.17;;;21.44;35.56
63708;BME280;67643;-34.198;22.084;2023-04-29T11:04:13;100793.81;;;21.86;35.66
63708;BME280;67643;-34.198;22.084;2023-04-29T11:06:44;100792.13;;;21.56;35.88
63708;BME280;67643;-34.198;22.084;2023-04-29T11:09:17;100792.35;;;21.24;36.31
63708;BME280;67643;-34.198;22.084;2023-04-29T11:11:48;100791.43;;;21.26;36.03
63708;BME280;67643;-34.198;22.084;2023-04-29T11:14:25;100790.51;;;21.52;35.63
63708;BME280;67643;-34.198;22.084;2023-04-29T11:16:57;100786.23;;;21.35;36.42
63708;BME280;67643;-34.198;22.084;2023-04-29T11:19:29;100784.76;;;21.06;36.08
63708;BME280;67643;-34.198;22.084;2023-04-29T11:22:24;100781.48;;;21.16;36.34
63708;BME280;67643;-34.198;22.084;2023-04-29T11:24:54;100780.92;;;21.34;36.14
63708;BME280;67643;-34.198;22.084;2023-04-29T11:27:24;100778.23;;;21.62;35.91
63708;BME280;67643;-34.198;22.084;2023-04-29T11:29:55;100774.41;;;21.75;35.79
63708;BME280;67643;-34.198;22.084;2023-04-29T11:32:23;100773.29;;;21.43;35.91
63708;BME280;67643;-34.198;22.084;2023-04-29T11:34:52;100772.30;;;20.90;36.70
63708;BME280;67643;-34.198;22.084;2023-04-29T11:37:22;100768.52;;;22.40;35.44
63708;BME280;67643;-34.198;22.084;2023-04-29T11:39:58;100772.43;;;21.88;35.50
63708;BME280;67643;-34.198;22.084;2023-04-29T11:42:27;100765.53;;;22.21;35.15
63708;BME280;67643;-34.198;22.084;2023-04-29T11:44:55;100773.68;;;22.33;35.25
63708;BME280;67643;-34.198;22.084;2023-04-29T11:47:27;100777.69;;;22.45;35.33
63708;BME280;67643;-34.198;22.084;2023-04-29T11:50:03;100778.38;;;22.33;35.22
63708;BME280;67643;-34.198;22.084;2023-04-29T11:52:31;100775.30;;;22.34;35.32
63708;BME280;67643;-34.198;22.084;2023-04-29T11:55:00;100783.55;;;22.24;35.38
63708;BME280;67643;-34.198;22.084;2023-04-29T11:57:28;100780.35;;;21.80;35.92
63708;BME280;67643;-34.198;22.084;2023-04-29T11:59:57;100780.51;;;22.02;35.51
63708;BME280;67643;-34.198;22.084;2023-04-29T12:02:30;100789.28;;;22.08;35.41
63708;BME280;67643;-34.198;22.084;2023-04-29T14:01:32;100845.45;;;15.43;54.93
63708;BME280;67643;-34.198;22.084;2023-04-29T14:04:01;100841.62;;;17.77;48.81
63708;BME280;67643;-34.198;22.084;2023-04-29T14:06:30;100840.79;;;19.00;45.19
63708;BME280;67643;-34.198;22.084;2023-04-29T14:08:58;100847.83;;;19.92;42.67
63708;BME280;67643;-34.198;22.084;2023-04-29T14:11:27;100850.25;;;20.68;40.61
63708;BME280;67643;-34.198;22.084;2023-04-29T14:13:55;100845.81;;;19.98;41.18
63708;BME280;67643;-34.198;22.084;2023-04-29T14:16:23;100855.75;;;20.82;39.91
63708;BME280;67643;-34.198;22.084;2023-04-29T14:18:52;100863.11;;;20.87;39.56
63708;BME280;67643;-34.198;22.084;2023-04-29T14:21:20;100865.66;;;20.84;39.50
63708;BME280;67643;-34.198;22.084;2023-04-29T14:23:49;100856.38;;;21.44;38.41
63708;BME280;67643;-34.198;22.084;2023-04-29T14:26:18;100857.42;;;21.03;38.89
63708;BME280;67643;-34.198;22.084;2023-04-29T14:28:46;100858.53;;;20.92;38.58
63708;BME280;67643;-34.198;22.084;2023-04-29T14:31:14;100857.79;;;21.21;38.27
63708;BME280;67643;-34.198;22.084;2023-04-29T14:33:43;100849.91;;;20.91;38.38
63708;BME280;67643;-34.198;22.084;2023-04-29T14:36:12;100850.90;;;20.31;39.10
63708;BME280;67643;-34.198;22.084;2023-04-29T14:38:40;100840.30;;;20.26;39.95
63708;BME280;67643;-34.198;22.084;2023-04-29T14:41:09;100838.54;;;20.45;39.66
63708;BME280;67643;-34.198;22.084;2023-04-29T14:43:37;100848.11;;;20.25;39.80
63708;BME280;67643;-34.198;22.084;2023-04-29T14:46:05;100852.76;;;20.33;39.37
63708;BME280;67643;-34.198;22.084;2023-04-29T14:48:33;100858.41;;;20.42;39.49
63708;BME280;67643;-34.198;22.084;2023-04-29T14:51:02;100865.39;;;20.55;38.96
63708;BME280;67643;-34.198;22.084;2023-04-29T14:53:31;100862.60;;;20.35;38.78
63708;BME280;67643;-34.198;22.084;2023-04-29T14:56:00;100863.36;;;20.59;38.92
63708;BME280;67643;-34.198;22.084;2023-04-29T14:58:28;100860.03;;;21.01;38.18
63708;BME280;67643;-34.198;22.084;2023-04-29T15:00:57;100858.96;;;20.79;38.73
63708;BME280;67643;-34.198;22.084;2023-04-29T15:03:26;100858.48;;;20.85;38.62
63708;BME280;67643;-34.198;22.084;2023-04-29T15:05:54;100862.40;;;20.45;39.28
63708;BME280;67643;-34.198;22.084;2023-04-29T15:08:22;100864.35;;;20.41;38.89
63708;BME280;67643;-34.198;22.084;2023-04-29T15:10:51;100864.17;;;20.23;38.89
63708;BME280;67643;-34.198;22.084;2023-04-29T15:13:19;100874.04;;;19.99;39.34
63708;BME280;67643;-34.198;22.084;2023-04-29T15:15:48;100879.79;;;20.51;38.74